Wausau, Florida
Current Conditions -  °F | °C
As of 11:53 AM on Saturday 20 Dec 2014 (Local Time) from KECP Reporting Station
Overcast Overcast  
Wind Chill: 53°   Ceiling: 4800
Heat Index: 53°   Visibility: 10mi
Dew Point: 50°   Wind: 8mph
Humidity: 89%   Direction: 20°NNE
Pressure: 30.09"   Gusts: NA
Location:  30.63°N, 85.59°W
Report Text: KECP 201753Z 02007KT 10SM OVC048 12/10 A3009 RMK AO2 RAE29 SLP202 P0002 60003 T01170100 10117 20094 58017 $
Loading
Personal Weather Stations






























Interactive Weather Map New forecast layout! Learn more

10-Day Weather Forecast

Advertisements
Track Severe Weather on mobile